createdAt,value
2019-05-07T00:00:43.551Z,6.50
2019-05-07T00:03:13.681Z,6.40
2019-05-07T00:05:45.612Z,6.63
2019-05-07T00:08:17.430Z,6.60
2019-05-07T00:10:49.154Z,6.57
2019-05-07T00:13:22.692Z,6.70
2019-05-07T00:15:54.334Z,6.47
2019-05-07T00:18:26.040Z,7.63
2019-05-07T00:20:58.016Z,7.50
2019-05-07T00:23:29.620Z,6.60
2019-05-07T00:26:02.901Z,6.90
2019-05-07T00:28:34.602Z,6.83
2019-05-07T00:31:06.336Z,6.67
2019-05-07T00:33:38.795Z,6.80
2019-05-07T00:36:17.259Z,7.40
2019-05-07T00:38:56.807Z,6.70
2019-05-07T00:41:42.729Z,7.50
2019-05-07T00:44:15.142Z,7.90
2019-05-07T00:46:46.908Z,7.13
2019-05-07T00:49:19.706Z,7.33
2019-05-07T00:51:51.980Z,7.57
2019-05-07T00:54:23.890Z,7.40
2019-05-07T00:56:55.658Z,7.50
2019-05-07T00:59:27.281Z,6.13
2019-05-07T01:01:59.025Z,7.47
2019-05-07T01:04:33.013Z,7.83
2019-05-07T01:07:04.998Z,7.80
2019-05-07T01:09:37.126Z,7.33
2019-05-07T01:12:08.846Z,8.03
2019-05-07T01:14:41.977Z,7.63
2019-05-07T01:17:13.849Z,8.67
2019-05-07T01:19:45.650Z,7.17
2019-05-07T01:22:17.392Z,8.03
2019-05-07T01:24:49.254Z,7.03
2019-05-07T01:27:22.618Z,7.17
2019-05-07T01:29:54.413Z,7.73
2019-05-07T01:32:39.376Z,8.90
2019-05-07T01:35:18.068Z,7.80
2019-05-07T01:37:52.221Z,8.57
2019-05-07T01:40:23.728Z,7.43
2019-05-07T01:42:55.426Z,7.33
2019-05-07T01:45:27.242Z,8.13
2019-05-07T01:47:58.850Z,7.77
2019-05-07T01:50:32.261Z,8.67
2019-05-07T01:53:04.294Z,7.73
2019-05-07T01:55:35.972Z,7.47
2019-05-07T01:58:07.548Z,7.30
2019-05-07T02:00:42.411Z,7.53
2019-05-07T02:03:53.899Z,8.20
2019-05-07T02:06:39.733Z,7.67
2019-05-07T02:09:44.944Z,7.90
2019-05-07T02:12:24.978Z,7.13
2019-05-07T02:14:56.608Z,7.33
2019-05-07T02:17:28.588Z,8.30
2019-05-07T02:20:02.407Z,8.93
2019-05-07T02:22:33.848Z,10.73
2019-05-07T02:25:06.020Z,8.47
2019-05-07T02:27:37.827Z,10.40
2019-05-07T02:30:09.726Z,10.53
2019-05-07T02:32:43.234Z,14.83
2019-05-07T02:35:14.836Z,13.47
2019-05-07T02:37:56.564Z,9.97
2019-05-07T02:40:56.624Z,8.57
2019-05-07T02:43:28.288Z,10.50
2019-05-07T02:46:36.060Z,13.43
2019-05-07T02:49:14.271Z,11.47
2019-05-07T02:51:54.610Z,12.17
2019-05-07T02:54:53.646Z,12.87
2019-05-07T02:57:24.418Z,12.83
2019-05-07T02:59:56.177Z,12.80
2019-05-07T03:02:28.140Z,12.93
2019-05-07T03:05:00.010Z,13.10
2019-05-07T03:07:33.495Z,13.27
2019-05-07T03:10:05.918Z,14.47
2019-05-07T03:12:38.286Z,16.00
2019-05-07T03:15:12.969Z,13.40
2019-05-07T03:17:43.750Z,12.27
2019-05-07T03:20:22.943Z,10.47
2019-05-07T03:22:56.454Z,14.00
2019-05-07T03:25:34.050Z,11.10
2019-05-07T03:28:05.861Z,10.07
2019-05-07T03:30:56.187Z,11.90
2019-05-07T03:33:58.490Z,11.20
2019-05-07T03:36:57.483Z,12.60
2019-05-07T03:39:29.498Z,12.63
2019-05-07T03:42:03.455Z,12.10
2019-05-07T03:45:08.186Z,11.93
2019-05-07T03:47:44.250Z,8.97
2019-05-07T03:50:16.725Z,12.77
2019-05-07T03:52:48.750Z,10.37
2019-05-07T03:55:23.177Z,10.67
2019-05-07T03:57:53.931Z,10.17
2019-05-07T04:00:25.954Z,9.13
2019-05-07T04:02:57.855Z,10.07
2019-05-07T04:05:29.892Z,9.47
2019-05-07T04:08:03.324Z,9.17
2019-05-07T04:10:35.399Z,10.40
2019-05-07T04:13:07.562Z,9.07
2019-05-07T04:15:39.607Z,10.13
2019-05-07T04:18:13.123Z,15.90
2019-05-07T04:20:44.908Z,11.60
2019-05-07T04:23:17.000Z,9.33
2019-05-07T04:26:05.441Z,9.57
2019-05-07T04:28:58.084Z,10.63
2019-05-07T04:31:34.168Z,10.17
2019-05-07T04:34:16.137Z,10.47
2019-05-07T04:36:53.194Z,10.23
2019-05-07T04:39:23.517Z,10.73
2019-05-07T04:41:55.534Z,12.60
2019-05-07T04:44:27.567Z,12.63
2019-05-07T04:46:59.489Z,11.63
2019-05-07T04:49:33.275Z,11.37
2019-05-07T04:52:12.492Z,9.50
2019-05-07T04:54:44.547Z,9.63
2019-05-07T04:57:29.555Z,10.97
2019-05-07T05:00:03.357Z,11.90
2019-05-07T05:02:52.985Z,11.07
2019-05-07T05:05:25.933Z,12.00
2019-05-07T05:07:58.293Z,12.30
2019-05-07T05:10:30.181Z,10.57
2019-05-07T05:13:03.237Z,9.30
2019-05-07T05:15:35.444Z,9.77
2019-05-07T05:18:08.559Z,10.67
2019-05-07T05:20:46.900Z,11.67
2019-05-07T05:23:36.498Z,10.30
2019-05-07T05:26:08.840Z,9.97
2019-05-07T05:28:41.968Z,9.47
2019-05-07T05:31:14.026Z,9.67
2019-05-07T05:33:45.956Z,11.40
2019-05-07T05:36:19.430Z,9.93
2019-05-07T05:38:52.869Z,10.23
2019-05-07T05:41:26.654Z,10.40
2019-05-07T05:44:07.261Z,9.77
2019-05-07T05:46:39.363Z,9.37
2019-05-07T05:49:11.908Z,9.77
2019-05-07T05:52:02.076Z,9.23
2019-05-07T05:54:39.244Z,9.60
2019-05-07T05:57:35.294Z,8.03
2019-05-07T06:00:22.222Z,9.10
2019-05-07T06:03:08.396Z,9.90
2019-05-07T06:05:52.793Z,8.10
2019-05-07T06:09:04.787Z,9.27
2019-05-07T06:11:57.138Z,9.10
2019-05-07T06:14:49.864Z,10.07
2019-05-07T06:18:04.025Z,8.80
2019-05-07T06:20:56.013Z,8.17
2019-05-07T06:23:37.353Z,10.10
2019-05-07T06:26:09.327Z,8.73
2019-05-07T06:28:42.575Z,10.13
2019-05-07T06:31:14.861Z,12.27
2019-05-07T06:33:54.518Z,11.03
2019-05-07T06:36:27.317Z,9.93
2019-05-07T06:39:06.871Z,8.27
2019-05-07T06:41:58.001Z,7.50
2019-05-07T06:44:32.009Z,8.13
2019-05-07T06:47:04.278Z,7.47
2019-05-07T06:49:36.415Z,6.83
2019-05-07T06:52:08.645Z,6.70
2019-05-07T06:54:42.837Z,6.30
2019-05-07T06:57:16.120Z,6.00
2019-05-07T06:59:54.127Z,6.33
2019-05-07T07:02:53.913Z,4.93
2019-05-07T07:05:45.361Z,5.73
2019-05-07T07:08:32.522Z,5.70
2019-05-07T07:11:43.889Z,5.70
2019-05-07T07:14:15.740Z,6.33
2019-05-07T07:16:48.048Z,5.20
2019-05-07T07:19:20.476Z,5.60
2019-05-07T07:21:52.966Z,6.40
2019-05-07T07:24:25.041Z,7.00
2019-05-07T07:26:57.085Z,5.07
2019-05-07T07:29:32.447Z,5.60
2019-05-07T07:32:05.811Z,5.03
2019-05-07T07:34:44.055Z,5.20
2019-05-07T07:37:46.459Z,6.30
2019-05-07T07:40:42.180Z,5.43
2019-05-07T07:43:14.451Z,5.40
2019-05-07T07:45:46.441Z,5.20
2019-05-07T07:48:18.505Z,4.47
2019-05-07T07:50:52.418Z,6.30
2019-05-07T07:53:24.528Z,5.90
2019-05-07T07:56:15.817Z,5.80
2019-05-07T07:59:15.025Z,5.07
2019-05-07T08:02:02.557Z,4.67
2019-05-07T08:04:35.041Z,4.37
2019-05-07T08:07:07.079Z,5.20
2019-05-07T08:09:39.415Z,3.97
2019-05-07T08:12:12.696Z,3.93
2019-05-07T08:14:45.004Z,4.30
2019-05-07T08:17:17.039Z,3.37
2019-05-07T08:19:48.997Z,3.70
2019-05-07T08:22:22.557Z,3.43
2019-05-07T08:24:55.225Z,3.93
2019-05-07T08:27:27.249Z,4.50
2019-05-07T08:29:59.195Z,4.17
2019-05-07T08:33:02.141Z,3.70
2019-05-07T08:35:46.075Z,4.20
2019-05-07T08:38:18.343Z,4.33
2019-05-07T08:40:52.079Z,3.53
2019-05-07T08:43:24.249Z,5.53
2019-05-07T08:46:05.402Z,3.60
2019-05-07T08:48:45.675Z,3.87
2019-05-07T08:51:17.497Z,6.00
2019-05-07T08:54:07.010Z,4.33
2019-05-07T08:56:39.589Z,4.07
2019-05-07T08:59:12.427Z,4.23
2019-05-07T09:01:45.455Z,4.37
2019-05-07T09:04:17.736Z,4.60
2019-05-07T09:06:51.919Z,4.27
2019-05-07T09:09:23.810Z,4.30
2019-05-07T09:11:55.876Z,3.47
2019-05-07T09:14:28.113Z,3.93
2019-05-07T09:17:02.504Z,4.63
2019-05-07T09:19:47.409Z,5.03
2019-05-07T09:22:09.502Z,3.20
2019-05-07T09:24:42.551Z,3.70
2019-05-07T09:27:36.988Z,6.70
2019-05-07T09:30:28.522Z,3.43
2019-05-07T09:33:16.036Z,4.97
2019-05-07T09:35:53.553Z,4.83
2019-05-07T09:38:28.190Z,2.77
2019-05-07T09:41:00.321Z,3.80
2019-05-07T09:43:32.554Z,3.67
2019-05-07T09:46:04.995Z,2.77
2019-05-07T09:48:37.182Z,2.67
2019-05-07T09:51:08.924Z,3.77
2019-05-07T09:53:42.491Z,5.27
2019-05-07T09:56:14.814Z,2.73
2019-05-07T09:58:48.208Z,4.37
2019-05-07T10:01:20.487Z,3.57
2019-05-07T10:03:53.249Z,3.20
2019-05-07T10:06:25.314Z,9.47
2019-05-07T10:08:57.581Z,3.10
2019-05-07T10:11:37.098Z,4.33
2019-05-07T10:14:12.421Z,3.17
2019-05-07T10:16:52.477Z,4.23
2019-05-07T10:19:24.801Z,3.30
2019-05-07T10:21:56.936Z,6.23
2019-05-07T10:24:29.471Z,3.73
2019-05-07T10:27:02.309Z,3.70
2019-05-07T10:29:34.646Z,3.97
2019-05-07T10:32:08.866Z,4.63
2019-05-07T10:34:42.206Z,3.10
2019-05-07T10:37:14.479Z,2.70
2019-05-07T10:39:46.802Z,3.77
2019-05-07T10:42:19.024Z,3.13
2019-05-07T10:45:08.982Z,3.10
2019-05-07T10:47:52.315Z,3.30
2019-05-07T10:50:36.352Z,3.07
2019-05-07T10:53:03.280Z,3.23
2019-05-07T10:55:35.490Z,2.60
2019-05-07T10:58:07.696Z,2.70
2019-05-07T11:00:41.965Z,3.80
2019-05-07T11:03:14.071Z,3.40
2019-05-07T11:05:48.028Z,3.30
2019-05-07T11:08:22.179Z,3.70
2019-05-07T11:10:54.392Z,3.57
2019-05-07T11:13:26.982Z,3.00
2019-05-07T11:16:11.767Z,3.80
2019-05-07T11:18:51.607Z,3.67
2019-05-07T11:21:35.536Z,3.30
2019-05-07T11:24:08.418Z,3.40
2019-05-07T11:26:41.991Z,4.00
2019-05-07T11:29:14.093Z,3.53
2019-05-07T11:31:46.918Z,3.40
2019-05-07T11:34:19.648Z,2.70
2019-05-07T11:36:52.400Z,2.87
2019-05-07T11:39:24.740Z,3.33
2019-05-07T11:42:36.106Z,3.50
2019-05-07T11:45:09.420Z,2.73
2019-05-07T11:47:41.816Z,2.93
2019-05-07T11:50:28.548Z,2.60
2019-05-07T11:53:05.004Z,4.33
2019-05-07T11:55:37.624Z,2.90
2019-05-07T11:58:09.672Z,2.60
2019-05-07T12:01:12.454Z,3.07
2019-05-07T12:03:44.541Z,2.83
2019-05-07T12:06:16.772Z,2.83
2019-05-07T12:08:51.987Z,3.80
2019-05-07T12:11:22.512Z,4.37
2019-05-07T12:13:57.269Z,3.50
2019-05-07T12:16:28.298Z,2.30
2019-05-07T12:19:02.289Z,3.03
2019-05-07T12:21:34.521Z,3.30
2019-05-07T12:24:07.066Z,3.50
2019-05-07T12:26:41.710Z,2.90
2019-05-07T12:29:14.038Z,3.60
2019-05-07T12:32:07.258Z,6.30
2019-05-07T12:34:47.726Z,3.53
2019-05-07T12:37:18.296Z,3.67
2019-05-07T12:39:50.387Z,3.40
2019-05-07T12:42:22.591Z,3.77
2019-05-07T12:44:54.676Z,3.70
2019-05-07T12:47:26.686Z,3.20
2019-05-07T12:49:58.884Z,2.90
2019-05-07T12:52:37.369Z,2.97
2019-05-07T12:55:36.489Z,3.77
2019-05-07T12:58:08.842Z,3.17
2019-05-07T13:01:04.699Z,3.30
2019-05-07T13:03:56.440Z,3.40
2019-05-07T13:06:28.177Z,2.67
2019-05-07T13:09:00.152Z,5.17
2019-05-07T13:11:32.640Z,2.70
2019-05-07T13:14:04.970Z,3.70
2019-05-07T13:16:37.038Z,3.77
2019-05-07T13:19:09.110Z,2.90
2019-05-07T13:21:49.100Z,4.23
2019-05-07T13:24:15.122Z,3.60
2019-05-07T13:26:46.971Z,2.93
2019-05-07T13:29:19.066Z,3.70
2019-05-07T13:31:54.237Z,3.30
2019-05-07T13:34:27.067Z,4.00
2019-05-07T13:37:04.566Z,3.07
2019-05-07T13:39:51.960Z,3.90
2019-05-07T13:42:43.967Z,3.87
2019-05-07T13:45:26.767Z,3.30
2019-05-07T13:48:18.157Z,4.33
2019-05-07T13:50:50.533Z,3.00
2019-05-07T13:53:23.340Z,3.17
2019-05-07T13:55:55.472Z,4.90
2019-05-07T13:58:27.766Z,2.70
2019-05-07T14:01:18.412Z,3.30
2019-05-07T14:03:50.474Z,2.80
2019-05-07T14:06:42.671Z,2.40
2019-05-07T14:09:23.855Z,3.00
2019-05-07T14:11:55.380Z,2.90
2019-05-07T14:14:27.718Z,3.20
2019-05-07T14:17:02.340Z,3.20
2019-05-07T14:19:35.205Z,3.73
2019-05-07T14:22:15.344Z,3.83
2019-05-07T14:24:42.287Z,4.60
2019-05-07T14:27:14.328Z,4.77
2019-05-07T14:29:46.485Z,3.00
2019-05-07T14:32:31.130Z,2.87
2019-05-07T14:35:23.263Z,2.37
2019-05-07T14:38:00.602Z,3.23
2019-05-07T14:40:32.477Z,2.37
2019-05-07T14:43:10.184Z,3.67
2019-05-07T14:45:43.048Z,3.50
2019-05-07T14:48:16.165Z,2.30
2019-05-07T14:50:48.304Z,1.83
2019-05-07T14:53:22.241Z,2.77
2019-05-07T14:55:54.319Z,2.60
2019-05-07T14:58:26.664Z,2.30
2019-05-07T15:00:58.816Z,2.30
2019-05-07T15:03:31.941Z,2.27
2019-05-07T15:06:04.278Z,2.07
2019-05-07T15:08:36.648Z,2.30
2019-05-07T15:11:08.843Z,3.30
2019-05-07T15:13:42.634Z,2.30
2019-05-07T15:16:14.748Z,2.43
2019-05-07T15:18:55.588Z,1.80
2019-05-07T15:21:28.675Z,4.47
2019-05-07T15:24:02.288Z,2.40
2019-05-07T15:26:36.058Z,2.87
2019-05-07T15:29:14.554Z,2.13
2019-05-07T15:32:21.684Z,2.20
2019-05-07T15:34:55.794Z,2.57
2019-05-07T15:37:29.194Z,2.10
2019-05-07T15:40:02.500Z,2.43
2019-05-07T15:42:34.698Z,2.20
2019-05-07T15:45:06.949Z,2.43
2019-05-07T15:47:44.773Z,2.93
2019-05-07T15:50:17.034Z,2.10
2019-05-07T15:53:04.270Z,2.37
2019-05-07T15:55:35.056Z,2.80
2019-05-07T15:58:07.569Z,2.57
2019-05-07T16:00:39.855Z,2.60
2019-05-07T16:03:27.092Z,2.77
2019-05-07T16:05:59.234Z,2.90
2019-05-07T16:08:34.214Z,2.60
2019-05-07T16:11:06.434Z,3.23
2019-05-07T16:13:42.076Z,2.90
2019-05-07T16:16:14.598Z,2.40
2019-05-07T16:19:04.148Z,2.30
2019-05-07T16:21:36.020Z,4.07
2019-05-07T16:24:07.908Z,1.70
2019-05-07T16:26:41.924Z,2.57
2019-05-07T16:29:14.368Z,2.57
2019-05-07T16:31:48.677Z,2.37
2019-05-07T16:34:22.050Z,2.60
2019-05-07T16:36:53.826Z,2.63
2019-05-07T16:39:24.240Z,4.37
2019-05-07T16:41:56.437Z,2.00
2019-05-07T16:44:29.236Z,2.40
2019-05-07T16:47:02.857Z,2.90
2019-05-07T16:49:34.621Z,2.10
2019-05-07T16:52:06.771Z,2.67
2019-05-07T16:54:38.906Z,2.40
2019-05-07T16:57:26.688Z,3.40
2019-05-07T17:00:09.669Z,2.80
2019-05-07T17:02:45.294Z,2.60
2019-05-07T17:05:17.558Z,2.83
2019-05-07T17:07:58.882Z,2.50
2019-05-07T17:10:31.806Z,1.87
2019-05-07T17:13:04.098Z,2.30
2019-05-07T17:15:41.853Z,2.60
2019-05-07T17:18:13.742Z,2.17
2019-05-07T17:20:47.530Z,3.50
2019-05-07T17:23:19.680Z,3.83
2019-05-07T17:25:52.697Z,3.60
2019-05-07T17:28:24.676Z,2.63
2019-05-07T17:30:57.030Z,2.03
2019-05-07T17:33:29.176Z,2.93
2019-05-07T17:36:02.513Z,2.90
2019-05-07T17:38:34.745Z,3.97
2019-05-07T17:41:13.585Z,3.23
2019-05-07T17:43:41.156Z,2.60
2019-05-07T17:46:13.727Z,2.40
2019-05-07T17:48:46.682Z,2.47
2019-05-07T17:51:39.277Z,2.97
2019-05-07T17:54:13.241Z,2.33
2019-05-07T17:56:45.704Z,2.00
2019-05-07T17:59:17.767Z,3.03
2019-05-07T18:02:09.044Z,3.30
2019-05-07T18:04:51.117Z,2.70
2019-05-07T18:07:17.024Z,2.60
2019-05-07T18:09:49.115Z,2.87
2019-05-07T18:12:22.511Z,2.67
2019-05-07T18:14:54.760Z,3.70
2019-05-07T18:17:42.823Z,3.17
2019-05-07T18:20:15.128Z,5.00
2019-05-07T18:22:47.278Z,3.67
2019-05-07T18:25:21.629Z,4.10
2019-05-07T18:27:53.088Z,3.50
2019-05-07T18:30:24.924Z,3.10
2019-05-07T18:33:22.117Z,3.07
2019-05-07T18:35:54.408Z,2.67
2019-05-07T18:38:26.694Z,4.03
2019-05-07T18:40:58.687Z,3.43
2019-05-07T18:43:30.486Z,3.10
2019-05-07T18:46:03.065Z,3.27
2019-05-07T18:48:35.144Z,2.33
2019-05-07T18:51:07.211Z,3.50
2019-05-07T18:53:39.306Z,3.43
2019-05-07T18:56:12.633Z,3.07
2019-05-07T18:58:45.010Z,3.60
2019-05-07T19:01:18.449Z,2.70
2019-05-07T19:03:52.437Z,3.03
2019-05-07T19:06:24.100Z,2.97
2019-05-07T19:08:56.054Z,3.63
2019-05-07T19:11:28.180Z,3.50
2019-05-07T19:14:02.869Z,3.97
2019-05-07T19:16:34.201Z,3.23
2019-05-07T19:19:06.206Z,4.63
2019-05-07T19:21:38.280Z,5.00
2019-05-07T19:24:10.388Z,3.73
2019-05-07T19:26:42.391Z,3.27
2019-05-07T19:29:14.716Z,3.03
2019-05-07T19:31:46.880Z,3.80
2019-05-07T19:34:18.886Z,4.30
2019-05-07T19:36:51.991Z,3.97
2019-05-07T19:39:24.223Z,3.10
2019-05-07T19:41:56.164Z,3.33
2019-05-07T19:44:28.462Z,3.67
2019-05-07T19:47:02.039Z,3.87
2019-05-07T19:49:34.036Z,3.63
2019-05-07T19:52:05.979Z,4.67
2019-05-07T19:54:38.199Z,4.00
2019-05-07T19:57:12.534Z,3.60
2019-05-07T19:59:44.526Z,3.40
2019-05-07T20:02:22.705Z,4.23
2019-05-07T20:04:54.052Z,3.97
2019-05-07T20:07:26.191Z,4.40
2019-05-07T20:09:58.134Z,3.93
2019-05-07T20:12:32.109Z,4.70
2019-05-07T20:15:03.654Z,3.90
2019-05-07T20:17:35.574Z,5.83
2019-05-07T20:20:08.102Z,3.40
2019-05-07T20:22:40.186Z,4.50
2019-05-07T20:25:18.814Z,3.80
2019-05-07T20:27:45.781Z,4.23
2019-05-07T20:30:17.569Z,5.07
2019-05-07T20:32:52.184Z,4.30
2019-05-07T20:35:23.850Z,4.50
2019-05-07T20:37:55.902Z,4.80
2019-05-07T20:40:28.013Z,4.27
2019-05-07T20:43:01.819Z,4.40
2019-05-07T20:45:33.830Z,4.93
2019-05-07T20:48:06.820Z,4.90
2019-05-07T20:50:38.971Z,4.33
2019-05-07T20:53:10.974Z,4.33
2019-05-07T20:55:53.050Z,5.37
2019-05-07T20:58:25.062Z,5.30
2019-05-07T21:00:57.022Z,4.23
2019-05-07T21:03:28.882Z,5.53
2019-05-07T21:06:02.271Z,5.60
2019-05-07T21:08:34.271Z,7.77
2019-05-07T21:11:06.178Z,5.30
2019-05-07T21:13:40.179Z,5.87
2019-05-07T21:16:12.754Z,4.90
2019-05-07T21:18:44.819Z,4.50
2019-05-07T21:21:16.640Z,5.17
2019-05-07T21:23:48.412Z,6.03
2019-05-07T21:26:22.280Z,5.40
2019-05-07T21:28:54.194Z,5.67
2019-05-07T21:31:26.282Z,5.60
2019-05-07T21:33:58.122Z,6.03
2019-05-07T21:36:32.216Z,5.83
2019-05-07T21:39:05.242Z,6.83
2019-05-07T21:41:37.092Z,6.10
2019-05-07T21:44:09.084Z,6.83
2019-05-07T21:46:42.556Z,7.00
2019-05-07T21:49:15.101Z,5.90
2019-05-07T21:51:47.569Z,5.63
2019-05-07T21:54:43.600Z,6.83
2019-05-07T21:57:36.172Z,5.30
2019-05-07T22:00:35.571Z,6.63
2019-05-07T22:03:12.846Z,6.07
2019-05-07T22:05:44.644Z,6.03
2019-05-07T22:08:16.564Z,6.90
2019-05-07T22:10:48.330Z,7.40
2019-05-07T22:13:22.012Z,7.27
2019-05-07T22:15:55.139Z,6.80
2019-05-07T22:18:27.456Z,7.23
2019-05-07T22:20:59.336Z,7.20
2019-05-07T22:23:32.309Z,7.17
2019-05-07T22:26:19.229Z,7.97
2019-05-07T22:28:38.464Z,6.93
2019-05-07T22:31:33.395Z,7.83
2019-05-07T22:34:12.886Z,7.70
2019-05-07T22:36:45.230Z,7.17
2019-05-07T22:39:17.096Z,8.00
2019-05-07T22:41:49.158Z,8.03
2019-05-07T22:44:23.815Z,8.03
2019-05-07T22:46:54.460Z,8.10
2019-05-07T22:49:26.650Z,8.17
2019-05-07T22:51:58.612Z,8.43
2019-05-07T22:54:31.949Z,7.43
2019-05-07T22:57:19.128Z,8.03
2019-05-07T22:59:50.983Z,9.20
2019-05-07T23:02:22.926Z,8.00
2019-05-07T23:04:54.946Z,7.83
2019-05-07T23:07:26.732Z,8.90
2019-05-07T23:09:58.640Z,8.93
2019-05-07T23:12:32.541Z,8.57
2019-05-07T23:15:04.108Z,9.40
2019-05-07T23:17:35.863Z,10.40
2019-05-07T23:20:07.850Z,10.73
2019-05-07T23:22:39.827Z,10.27
2019-05-07T23:25:11.637Z,10.33
2019-05-07T23:27:43.330Z,10.43
2019-05-07T23:30:15.285Z,10.17
2019-05-07T23:32:46.996Z,10.30
2019-05-07T23:35:19.124Z,10.23
2019-05-07T23:37:53.011Z,10.50
2019-05-07T23:40:45.559Z,11.23
2019-05-07T23:43:17.128Z,10.00
2019-05-07T23:45:49.117Z,10.00
2019-05-07T23:48:22.718Z,9.93
2019-05-07T23:50:54.458Z,9.63
2019-05-07T23:53:26.188Z,11.57
2019-05-07T23:55:57.960Z,9.93
2019-05-07T23:58:29.558Z,10.37
